ZDV Airport - KDEN

Denver International

Live Information

KDEN 040553Z 21013KT 10SM FEW170 BKN220 19/07 A3006 RMK AO2 SLP090 T01940067 10261 20189 50003

The airport is in VFR flying conditions

Charts

Live Pilots

Departures
Callsign Pilot Name Aircraft Type Arrival Filed Cruise Altitude Ground Speed Flight State
DAL1282 jonathan hager KDEN B739/L KSLC 34000 5726 156 Outside ZDV
DAL3160 Jeff Degraft KJFK B738/L KLAX 36000 123 0 Outside ZDV
CSN660 Adami Xia ZGSZ H/B77L KSFO 34000 36097 458 Outside ZDV
BAW17V Alexander Budde ETMN H/B744/L EGLL 31000 28416 508 Departing

Arrivals
Callsign Pilot Name Aircraft Type Departure Filed Cruise Altitude Ground Speed Flight State
AAL9AK Harry WILBURN KIAH B738/L KORD 36000 5439 14 Arriving